Time;durP1;ratioP1;P1;durP2;ratioP2;P2;SDS_P1;SDS_P2;PMS_P1;PMS_P2;Temp;Humidity;BMP_temperature;BMP_pressure;BME280_temperature;BME280_humidity;BME280_pressure;Samples;Min_cycle;Max_cycle;Signal;HPM_P1;HPM_P2
2021/06/08 00:00:27;;;;;;;7.63;4.40;;;;;;;;;;4943657;29;20058;-85
2021/06/08 00:02:53;;;;;;;7.45;4.10;;;;;;;;;;4943543;29;20032;-85
2021/06/08 00:05:20;;;;;;;7.65;4.10;;;;;;;;;;4943627;29;20027;-85
2021/06/08 00:07:47;;;;;;;8.90;3.95;;;;;;;;;;4926530;29;20205;-85
2021/06/08 00:10:14;;;;;;;7.00;4.10;;;;;;;;;;4943355;29;20079;-85
2021/06/08 00:12:40;;;;;;;9.77;4.60;;;;;;;;;;4943159;29;20071;-85
2021/06/08 00:15:07;;;;;;;9.32;3.95;;;;;;;;;;4943136;29;20043;-85
2021/06/08 00:17:33;;;;;;;14.88;5.15;;;;;;;;;;4943472;29;20326;-86
2021/06/08 00:23:35;;;;;;;8.13;4.03;;;;;;;;;;4921462;29;20391;-85
2021/06/08 00:26:01;;;;;;;6.82;4.22;;;;;;;;;;4922793;29;20040;-86
2021/06/08 00:28:27;;;;;;;6.03;4.35;;;;;;;;;;4924334;29;20050;-85
2021/06/08 00:30:54;;;;;;;10.27;4.43;;;;;;;;;;4923895;29;20116;-85
2021/06/08 00:33:20;;;;;;;9.85;4.45;;;;;;;;;;4923818;29;20043;-86
2021/06/08 00:35:46;;;;;;;8.48;4.93;;;;;;;;;;4923632;29;20063;-85
2021/06/08 00:38:12;;;;;;;14.23;5.40;;;;;;;;;;4924040;29;20036;-85
2021/06/08 00:40:42;;;;;;;11.27;4.85;;;;;;;;;;4923651;29;20043;-85
2021/06/08 00:43:08;;;;;;;12.25;5.18;;;;;;;;;;4923606;29;20382;-85
2021/06/08 00:45:34;;;;;;;14.30;5.50;;;;;;;;;;4923987;29;20040;-85
2021/06/08 00:48:00;;;;;;;8.68;5.40;;;;;;;;;;4922853;29;20036;-85
2021/06/08 00:53:29;;;;;;;12.07;6.57;;;;;;;;;;4923816;29;20070;-86
2021/06/08 00:55:55;;;;;;;8.10;6.43;;;;;;;;;;4923531;29;20092;-86
2021/06/08 00:58:21;;;;;;;11.90;5.82;;;;;;;;;;4923318;29;20038;-86
2021/06/08 01:00:48;;;;;;;14.45;6.82;;;;;;;;;;4923648;29;20323;-86
2021/06/08 01:03:14;;;;;;;9.77;6.60;;;;;;;;;;4922337;29;20039;-86
2021/06/08 01:05:40;;;;;;;9.55;6.20;;;;;;;;;;4923653;29;20028;-86
2021/06/08 01:08:06;;;;;;;10.77;6.40;;;;;;;;;;4923333;29;20036;-85
2021/06/08 01:10:32;;;;;;;15.43;7.05;;;;;;;;;;4922459;29;20036;-86
2021/06/08 01:12:58;;;;;;;17.73;6.93;;;;;;;;;;4921946;29;22292;-85
2021/06/08 01:15:24;;;;;;;13.15;6.82;;;;;;;;;;4922103;29;20048;-85
2021/06/08 01:17:51;;;;;;;9.23;6.32;;;;;;;;;;4922895;29;20462;-85
2021/06/08 01:20:17;;;;;;;14.05;6.80;;;;;;;;;;4923358;29;20111;-84
2021/06/08 01:22:44;;;;;;;16.67;6.97;;;;;;;;;;4922812;29;20088;-84
2021/06/08 01:25:10;;;;;;;13.48;7.22;;;;;;;;;;4906898;29;20044;-85
2021/06/08 01:27:37;;;;;;;13.02;7.22;;;;;;;;;;4904198;29;20331;-84
2021/06/08 01:30:04;;;;;;;14.18;7.50;;;;;;;;;;4903824;29;20119;-84
2021/06/08 01:32:32;;;;;;;15.10;7.32;;;;;;;;;;4903688;29;20422;-84
2021/06/08 01:34:58;;;;;;;12.52;7.15;;;;;;;;;;4903905;29;20060;-85
2021/06/08 01:37:25;;;;;;;13.32;6.85;;;;;;;;;;4904136;29;20037;-84
2021/06/08 01:39:51;;;;;;;14.18;6.82;;;;;;;;;;4903957;29;20340;-85
2021/06/08 01:42:18;;;;;;;13.18;7.43;;;;;;;;;;4903338;29;20059;-85
2021/06/08 01:44:45;;;;;;;14.52;6.63;;;;;;;;;;4903626;29;20368;-85
2021/06/08 01:47:11;;;;;;;8.77;6.53;;;;;;;;;;4903565;29;20040;-85
2021/06/08 01:52:43;;;;;;;17.60;6.97;;;;;;;;;;4903947;29;20096;-85
2021/06/08 01:55:21;;;;;;;14.70;6.03;;;;;;;;;;4903682;29;20068;-86
2021/06/08 01:58:02;;;;;;;9.68;6.10;;;;;;;;;;4903407;29;20041;-85
2021/06/08 02:00:37;;;;;;;9.93;6.47;;;;;;;;;;4903422;29;20037;-85
2021/06/08 02:03:03;;;;;;;12.75;6.18;;;;;;;;;;4903450;29;20036;-85
2021/06/08 02:05:58;;;;;;;9.50;6.40;;;;;;;;;;4903623;29;20036;-86
2021/06/08 02:08:39;;;;;;;9.52;6.50;;;;;;;;;;4902328;29;20483;-86
2021/06/08 02:11:07;;;;;;;10.88;6.82;;;;;;;;;;4903141;29;20037;-86
2021/06/08 02:13:34;;;;;;;16.02;8.20;;;;;;;;;;4902083;29;20048;-86
2021/06/08 02:16:05;;;;;;;10.73;7.10;;;;;;;;;;4903373;29;20352;-85
2021/06/08 02:18:34;;;;;;;15.35;8.00;;;;;;;;;;4903044;29;20427;-85
2021/06/08 02:24:04;;;;;;;19.70;7.85;;;;;;;;;;4914965;29;20035;-85
2021/06/08 02:26:31;;;;;;;17.17;7.82;;;;;;;;;;4941104;29;20054;-86
2021/06/08 02:28:59;;;;;;;16.20;8.48;;;;;;;;;;4941031;29;20040;-85
2021/06/08 02:31:26;;;;;;;16.63;7.35;;;;;;;;;;4940804;29;20035;-85
2021/06/08 02:33:52;;;;;;;15.02;7.68;;;;;;;;;;4940923;29;20382;-85
2021/06/08 02:36:19;;;;;;;13.90;7.07;;;;;;;;;;4923919;29;20040;-84
2021/06/08 02:38:46;;;;;;;12.13;6.70;;;;;;;;;;4940888;29;20040;-85
2021/06/08 02:41:12;;;;;;;12.85;7.15;;;;;;;;;;4940801;29;20051;-85
2021/06/08 02:43:39;;;;;;;10.48;6.80;;;;;;;;;;4940643;29;20035;-85
2021/06/08 02:46:06;;;;;;;12.95;6.72;;;;;;;;;;4940767;29;20043;-86
2021/06/08 02:48:33;;;;;;;15.27;7.22;;;;;;;;;;4940807;29;20023;-85
2021/06/08 02:54:03;;;;;;;11.10;6.78;;;;;;;;;;4940267;29;20075;-84
2021/06/08 02:56:29;;;;;;;19.10;8.18;;;;;;;;;;4940307;29;20136;-85
2021/06/08 02:58:56;;;;;;;9.18;6.43;;;;;;;;;;4940201;29;20043;-85
2021/06/08 03:01:22;;;;;;;14.85;7.35;;;;;;;;;;4940578;29;20043;-85
2021/06/08 03:04:03;;;;;;;16.38;6.72;;;;;;;;;;4882289;29;20125;-85
2021/06/08 03:06:37;;;;;;;11.40;7.30;;;;;;;;;;4882221;29;20033;-86
2021/06/08 03:09:07;;;;;;;18.42;7.85;;;;;;;;;;4882048;29;20173;-85
2021/06/08 03:11:37;;;;;;;17.45;8.25;;;;;;;;;;4882144;29;20037;-86
2021/06/08 03:14:05;;;;;;;12.90;7.60;;;;;;;;;;4866207;29;20052;-85
2021/06/08 03:16:32;;;;;;;16.00;8.30;;;;;;;;;;4866355;29;20051;-86
2021/06/08 03:19:00;;;;;;;12.55;7.55;;;;;;;;;;4881764;29;20038;-87
2021/06/08 03:21:31;;;;;;;13.05;7.60;;;;;;;;;;4881697;29;20059;-86
2021/06/08 03:23:59;;;;;;;17.10;8.02;;;;;;;;;;4866362;29;20041;-86
2021/06/08 03:26:27;;;;;;;18.17;7.53;;;;;;;;;;4881948;29;20424;-86
2021/06/08 03:28:54;;;;;;;13.82;7.47;;;;;;;;;;4881980;29;20128;-86
2021/06/08 03:31:20;;;;;;;15.52;8.60;;;;;;;;;;4882176;29;20116;-85
2021/06/08 03:33:47;;;;;;;17.98;7.82;;;;;;;;;;4883674;29;20044;-86
2021/06/08 03:39:35;;;;;;;12.65;8.18;;;;;;;;;;4885670;29;20447;-85
2021/06/08 03:42:02;;;;;;;14.82;7.68;;;;;;;;;;4933955;29;20043;-85
2021/06/08 03:44:28;;;;;;;15.98;7.78;;;;;;;;;;4926997;29;20339;-86
2021/06/08 03:46:55;;;;;;;20.45;8.98;;;;;;;;;;4944120;29;20047;-86
2021/06/08 03:49:22;;;;;;;18.17;9.52;;;;;;;;;;4943927;29;20388;-85
2021/06/08 03:51:52;;;;;;;20.25;12.13;;;;;;;;;;4926858;29;20040;-85
2021/06/08 03:54:18;;;;;;;18.30;10.52;;;;;;;;;;4943821;29;20059;-85
2021/06/08 03:56:46;;;;;;;22.27;10.68;;;;;;;;;;4943858;29;20040;-85
2021/06/08 03:59:13;;;;;;;24.98;11.27;;;;;;;;;;4943672;29;20143;-86
2021/06/08 04:01:39;;;;;;;19.20;9.35;;;;;;;;;;4926790;29;20028;-85
2021/06/08 04:04:08;;;;;;;16.52;8.43;;;;;;;;;;4943703;29;20028;-85
2021/06/08 04:06:35;;;;;;;15.73;7.10;;;;;;;;;;4943241;29;20059;-85
2021/06/08 04:09:08;;;;;;;13.35;6.75;;;;;;;;;;4943490;29;20062;-86
2021/06/08 04:11:34;;;;;;;14.55;6.60;;;;;;;;;;4926600;29;20314;-84
2021/06/08 04:14:01;;;;;;;10.93;7.25;;;;;;;;;;4943079;29;20381;-85
2021/06/08 04:16:27;;;;;;;11.75;7.43;;;;;;;;;;4943086;29;20039;-86
2021/06/08 04:18:54;;;;;;;13.10;7.80;;;;;;;;;;4943096;29;20091;-86
2021/06/08 04:21:41;;;;;;;12.45;7.60;;;;;;;;;;4942936;29;20032;-85
2021/06/08 04:24:07;;;;;;;14.77;7.57;;;;;;;;;;4942928;29;20048;-85
2021/06/08 04:26:34;;;;;;;12.75;6.85;;;;;;;;;;4943029;29;20032;-85
2021/06/08 04:29:00;;;;;;;11.98;6.10;;;;;;;;;;4943260;29;20043;-85
2021/06/08 04:31:26;;;;;;;9.02;5.53;;;;;;;;;;4943145;29;20042;-86
2021/06/08 04:33:52;;;;;;;7.10;5.60;;;;;;;;;;4926220;29;20066;-87
2021/06/08 04:36:37;;;;;;;17.88;5.90;;;;;;;;;;4943250;29;20325;-85
2021/06/08 04:39:03;;;;;;;7.75;5.10;;;;;;;;;;4942693;29;20035;-86
2021/06/08 04:41:29;;;;;;;9.55;5.25;;;;;;;;;;4942755;29;20036;-86
2021/06/08 04:43:55;;;;;;;9.27;5.60;;;;;;;;;;4942456;29;20040;-82
2021/06/08 04:46:22;;;;;;;11.57;6.88;;;;;;;;;;4924652;29;20083;-83
2021/06/08 04:48:48;;;;;;;11.18;6.70;;;;;;;;;;4942273;29;20040;-83
2021/06/08 04:51:14;;;;;;;17.83;8.55;;;;;;;;;;4925438;29;20370;-83
2021/06/08 04:53:41;;;;;;;13.90;6.38;;;;;;;;;;4942464;29;20040;-83
2021/06/08 04:56:07;;;;;;;12.10;6.88;;;;;;;;;;4942571;29;20051;-84
2021/06/08 04:58:34;;;;;;;12.85;7.90;;;;;;;;;;4942437;29;20044;-84
2021/06/08 05:01:10;;;;;;;9.98;5.90;;;;;;;;;;4942612;29;20028;-84
2021/06/08 05:03:43;;;;;;;8.52;6.15;;;;;;;;;;4942320;29;20548;-84
2021/06/08 05:06:12;;;;;;;11.38;7.85;;;;;;;;;;4942251;29;20042;-84
2021/06/08 05:08:45;;;;;;;12.95;7.78;;;;;;;;;;4925047;29;20032;-84
2021/06/08 05:11:20;;;;;;;19.58;9.82;;;;;;;;;;4942381;29;20039;-84
2021/06/08 05:13:50;;;;;;;19.40;7.38;;;;;;;;;;4942084;29;20039;-84
2021/06/08 05:16:16;;;;;;;12.77;7.53;;;;;;;;;;4941745;29;20080;-84
2021/06/08 05:18:43;;;;;;;8.25;6.80;;;;;;;;;;4942123;29;20034;-85
2021/06/08 05:21:13;;;;;;;15.32;9.30;;;;;;;;;;4941761;29;20418;-83
2021/06/08 05:23:40;;;;;;;10.85;7.72;;;;;;;;;;4941612;29;20043;-84
2021/06/08 05:26:06;;;;;;;15.38;11.07;;;;;;;;;;4925039;29;20036;-84
2021/06/08 05:28:34;;;;;;;13.77;8.25;;;;;;;;;;4924672;29;20161;-83
2021/06/08 05:31:01;;;;;;;13.60;6.65;;;;;;;;;;4942059;29;20106;-84
2021/06/08 05:33:27;;;;;;;13.95;6.90;;;;;;;;;;4941663;29;20370;-83
2021/06/08 05:35:56;;;;;;;14.80;9.50;;;;;;;;;;4941524;29;20074;-83
2021/06/08 05:38:38;;;;;;;11.68;7.45;;;;;;;;;;4924569;29;20035;-83
2021/06/08 05:41:05;;;;;;;10.50;6.53;;;;;;;;;;4941433;29;20044;-83
2021/06/08 05:43:31;;;;;;;14.63;10.18;;;;;;;;;;4941313;29;20044;-83
2021/06/08 05:45:57;;;;;;;10.73;7.35;;;;;;;;;;4941440;29;20060;-83
2021/06/08 05:48:24;;;;;;;8.70;6.72;;;;;;;;;;4941200;29;20063;-83
2021/06/08 05:50:53;;;;;;;12.23;9.90;;;;;;;;;;4941426;29;20035;-83
2021/06/08 05:53:20;;;;;;;9.65;5.72;;;;;;;;;;4924337;29;20035;-83
2021/06/08 05:55:48;;;;;;;13.32;8.15;;;;;;;;;;4940871;29;20063;-82
2021/06/08 05:58:15;;;;;;;15.50;12.27;;;;;;;;;;4940985;29;20043;-84
2021/06/08 06:00:41;;;;;;;16.30;10.38;;;;;;;;;;4941499;29;20051;-85
2021/06/08 06:03:07;;;;;;;10.82;8.95;;;;;;;;;;4941504;29;20046;-85
2021/06/08 06:11:43;;;;;;;8.85;5.63;;;;;;;;;;4941275;29;20066;-84
2021/06/08 06:14:09;;;;;;;10.02;5.18;;;;;;;;;;4940683;29;20042;-84
2021/06/08 06:16:46;;;;;;;7.30;5.47;;;;;;;;;;4940763;29;20411;-84
2021/06/08 06:19:13;;;;;;;6.32;4.40;;;;;;;;;;4940652;29;20118;-84
2021/06/08 06:21:39;;;;;;;8.95;4.45;;;;;;;;;;4924024;29;20027;-84
2021/06/08 06:24:06;;;;;;;5.95;4.32;;;;;;;;;;4940696;29;20046;-84
2021/06/08 06:26:33;;;;;;;10.02;4.90;;;;;;;;;;4924064;29;20132;-84
2021/06/08 06:28:59;;;;;;;10.13;4.70;;;;;;;;;;4940619;29;20031;-84
2021/06/08 06:31:26;;;;;;;4.50;3.63;;;;;;;;;;4940538;29;20410;-84
2021/06/08 06:33:56;;;;;;;6.35;3.90;;;;;;;;;;4940621;29;20039;-84
2021/06/08 06:36:23;;;;;;;9.13;5.15;;;;;;;;;;4940550;29;20072;-84
2021/06/08 06:38:50;;;;;;;12.68;6.07;;;;;;;;;;4940445;29;20106;-84
2021/06/08 06:41:17;;;;;;;8.98;5.50;;;;;;;;;;4940394;29;20414;-84
2021/06/08 06:54:47;;;;;;;5.55;4.97;;;;;;;;;;5175643;27;20411;-84
2021/06/08 06:57:14;;;;;;;10.60;4.72;;;;;;;;;;5154380;27;20450;-84
2021/06/08 06:59:40;;;;;;;7.55;4.10;;;;;;;;;;5154318;27;20031;-84
2021/06/08 07:02:09;;;;;;;7.50;4.68;;;;;;;;;;5154426;27;20035;-84
2021/06/08 07:04:36;;;;;;;8.27;4.28;;;;;;;;;;5154329;27;20023;-84
2021/06/08 07:07:02;;;;;;;7.22;4.25;;;;;;;;;;5154386;27;20031;-84
2021/06/08 07:09:28;;;;;;;9.13;3.92;;;;;;;;;;5154418;27;20027;-84
2021/06/08 07:11:55;;;;;;;9.25;3.88;;;;;;;;;;5136548;27;20072;-84
2021/06/08 07:14:22;;;;;;;8.55;3.60;;;;;;;;;;5153643;27;20018;-84
2021/06/08 07:16:50;;;;;;;4.63;2.92;;;;;;;;;;5153921;27;20022;-84
2021/06/08 07:19:19;;;;;;;5.85;2.85;;;;;;;;;;5136524;27;20072;-84
2021/06/08 07:21:45;;;;;;;6.40;3.03;;;;;;;;;;5136674;27;20420;-84
2021/06/08 07:24:11;;;;;;;7.32;3.03;;;;;;;;;;5153743;27;20412;-84
2021/06/08 07:26:38;;;;;;;8.20;3.15;;;;;;;;;;5153945;27;20363;-84
2021/06/08 07:29:07;;;;;;;4.95;3.33;;;;;;;;;;5153859;27;20112;-84
2021/06/08 07:31:39;;;;;;;6.20;2.90;;;;;;;;;;5130640;27;20417;-84
2021/06/08 07:34:09;;;;;;;7.30;2.50;;;;;;;;;;5094145;28;20055;-84
2021/06/08 07:36:44;;;;;;;9.50;2.85;;;;;;;;;;5092776;28;20033;-84
2021/06/08 07:39:11;;;;;;;3.53;2.42;;;;;;;;;;5093930;28;20107;-84
2021/06/08 07:42:07;;;;;;;10.20;3.00;;;;;;;;;;5092688;28;20027;-84
2021/06/08 07:44:42;;;;;;;5.68;2.70;;;;;;;;;;5071795;28;20164;-84
2021/06/08 07:47:08;;;;;;;6.35;3.17;;;;;;;;;;5071662;28;20368;-84
2021/06/08 07:49:35;;;;;;;5.30;3.20;;;;;;;;;;5071742;28;20086;-84
2021/06/08 07:52:03;;;;;;;6.82;2.88;;;;;;;;;;5071206;28;20036;-84
2021/06/08 07:54:31;;;;;;;6.57;2.80;;;;;;;;;;5063435;28;20446;-84
2021/06/08 07:56:58;;;;;;;8.15;3.30;;;;;;;;;;5041542;28;20033;-84
2021/06/08 07:59:25;;;;;;;4.95;2.97;;;;;;;;;;5058283;28;20079;-85
2021/06/08 08:01:52;;;;;;;6.00;2.88;;;;;;;;;;5058121;28;20028;-84
2021/06/08 08:04:19;;;;;;;9.48;3.13;;;;;;;;;;5058113;28;20041;-84
2021/06/08 08:06:49;;;;;;;4.97;3.50;;;;;;;;;;5057893;28;20028;-84
2021/06/08 08:09:17;;;;;;;7.25;2.92;;;;;;;;;;5057994;28;20025;-84
2021/06/08 08:11:45;;;;;;;5.15;2.47;;;;;;;;;;5057924;28;20021;-84
2021/06/08 08:14:13;;;;;;;7.88;2.80;;;;;;;;;;5057854;28;20124;-84
2021/06/08 08:16:41;;;;;;;6.88;2.88;;;;;;;;;;5041168;28;20059;-84
2021/06/08 08:19:07;;;;;;;6.40;2.55;;;;;;;;;;5040724;28;20064;-84
2021/06/08 08:21:33;;;;;;;4.57;2.40;;;;;;;;;;5074534;28;20036;-84
2021/06/08 08:23:59;;;;;;;4.90;2.63;;;;;;;;;;5079535;28;20032;-84
2021/06/08 08:26:25;;;;;;;6.05;3.05;;;;;;;;;;5079615;28;20065;-84
2021/06/08 08:28:58;;;;;;;5.70;3.13;;;;;;;;;;5078359;28;20036;-84
2021/06/08 08:31:27;;;;;;;20.20;3.17;;;;;;;;;;5079558;28;20036;-84
2021/06/08 08:33:53;;;;;;;6.45;3.15;;;;;;;;;;5079305;28;20025;-84
2021/06/08 08:36:19;;;;;;;7.25;3.15;;;;;;;;;;5078228;28;20025;-84
2021/06/08 08:38:45;;;;;;;5.00;3.00;;;;;;;;;;5079561;28;20028;-84
2021/06/08 08:41:11;;;;;;;9.63;2.55;;;;;;;;;;5079116;28;20446;-84
2021/06/08 08:43:42;;;;;;;5.80;2.83;;;;;;;;;;5077924;28;20036;-84
2021/06/08 08:46:08;;;;;;;4.80;2.65;;;;;;;;;;5079239;28;20029;-84
2021/06/08 08:48:34;;;;;;;4.75;2.65;;;;;;;;;;5079185;28;20033;-84
2021/06/08 08:51:00;;;;;;;4.88;2.90;;;;;;;;;;5078878;28;20021;-84
2021/06/08 08:53:26;;;;;;;11.95;3.28;;;;;;;;;;5078916;28;20075;-84
2021/06/08 08:55:52;;;;;;;5.22;2.63;;;;;;;;;;5078584;28;20025;-84
2021/06/08 08:58:19;;;;;;;4.30;2.70;;;;;;;;;;5078996;28;20021;-84
2021/06/08 09:00:45;;;;;;;5.53;2.90;;;;;;;;;;5079180;28;20104;-84
2021/06/08 09:03:15;;;;;;;8.85;2.88;;;;;;;;;;5078646;28;20016;-84
2021/06/08 09:05:42;;;;;;;4.82;2.60;;;;;;;;;;5076519;28;20032;-84
2021/06/08 09:08:09;;;;;;;4.70;2.70;;;;;;;;;;5078950;28;20081;-84
2021/06/08 09:10:35;;;;;;;5.38;2.65;;;;;;;;;;5077317;28;20039;-84
2021/06/08 09:13:01;;;;;;;3.75;2.65;;;;;;;;;;5078820;28;20016;-84
2021/06/08 09:15:28;;;;;;;6.40;2.45;;;;;;;;;;5077482;28;20031;-84
2021/06/08 09:17:55;;;;;;;5.22;2.70;;;;;;;;;;5077440;28;20021;-84
2021/06/08 09:20:21;;;;;;;7.75;2.67;;;;;;;;;;5078563;28;20029;-84
2021/06/08 09:22:50;;;;;;;8.75;2.78;;;;;;;;;;5078426;28;20029;-84
2021/06/08 09:28:07;;;;;;;3.67;2.53;;;;;;;;;;5078392;28;20056;-84
2021/06/08 09:30:36;;;;;;;7.80;2.78;;;;;;;;;;5077204;28;20087;-84
2021/06/08 09:33:11;;;;;;;3.58;3.10;;;;;;;;;;5077933;28;20379;-84
2021/06/08 09:35:37;;;;;;;5.50;2.60;;;;;;;;;;5078149;28;20017;-84
2021/06/08 09:38:03;;;;;;;8.25;3.33;;;;;;;;;;5076939;28;20032;-84
2021/06/08 09:40:30;;;;;;;7.18;2.95;;;;;;;;;;5077870;28;20062;-84
2021/06/08 09:43:02;;;;;;;5.65;3.10;;;;;;;;;;5077888;28;20108;-84
2021/06/08 09:45:38;;;;;;;4.78;2.80;;;;;;;;;;5076758;28;20025;-84
2021/06/08 09:48:05;;;;;;;9.20;2.75;;;;;;;;;;5078053;28;20035;-85
2021/06/08 09:50:35;;;;;;;4.03;2.60;;;;;;;;;;5077903;28;20063;-84
2021/06/08 09:53:20;;;;;;;4.60;2.50;;;;;;;;;;5077588;28;20044;-84
2021/06/08 09:55:51;;;;;;;4.75;2.70;;;;;;;;;;5076660;28;20020;-84
2021/06/08 09:58:17;;;;;;;6.60;3.08;;;;;;;;;;5077313;28;20465;-84
2021/06/08 10:00:43;;;;;;;8.00;3.22;;;;;;;;;;5077635;28;20433;-84
2021/06/08 10:03:09;;;;;;;4.63;2.72;;;;;;;;;;5077759;28;20419;-84
2021/06/08 10:05:36;;;;;;;6.07;2.65;;;;;;;;;;5077585;28;20110;-84
2021/06/08 10:08:02;;;;;;;5.72;2.83;;;;;;;;;;5076384;28;20422;-84
2021/06/08 10:10:39;;;;;;;5.07;2.63;;;;;;;;;;5077462;28;20031;-84
2021/06/08 10:13:05;;;;;;;3.92;2.55;;;;;;;;;;5077493;28;20287;-84
2021/06/08 10:15:51;;;;;;;5.07;2.83;;;;;;;;;;5077492;28;20032;-84
2021/06/08 10:18:18;;;;;;;5.70;3.08;;;;;;;;;;5075952;28;20024;-84
2021/06/08 10:20:54;;;;;;;8.75;3.13;;;;;;;;;;5077338;28;20024;-84
2021/06/08 10:23:22;;;;;;;5.35;2.60;;;;;;;;;;5077620;28;20437;-83
2021/06/08 10:25:49;;;;;;;3.28;2.60;;;;;;;;;;5077500;28;20032;-84
2021/06/08 10:28:16;;;;;;;4.72;2.67;;;;;;;;;;5077406;28;20127;-84
2021/06/08 10:30:43;;;;;;;4.25;2.83;;;;;;;;;;5077366;28;20024;-84
2021/06/08 10:33:09;;;;;;;4.35;2.72;;;;;;;;;;5077395;28;20020;-84
2021/06/08 10:35:36;;;;;;;8.05;2.80;;;;;;;;;;5076941;28;20094;-84
2021/06/08 10:38:07;;;;;;;5.45;2.60;;;;;;;;;;5077194;28;20062;-84
2021/06/08 10:40:34;;;;;;;8.63;3.00;;;;;;;;;;5077498;28;20025;-84
2021/06/08 10:43:00;;;;;;;7.82;2.80;;;;;;;;;;5077112;28;20029;-84
2021/06/08 10:45:37;;;;;;;5.63;2.83;;;;;;;;;;5077204;28;20406;-84
2021/06/08 10:48:14;;;;;;;8.52;3.13;;;;;;;;;;5076247;28;20024;-84
2021/06/08 10:50:45;;;;;;;3.75;2.80;;;;;;;;;;5077185;28;20036;-84
2021/06/08 10:53:25;;;;;;;8.60;2.90;;;;;;;;;;5076839;28;20053;-84
2021/06/08 10:55:51;;;;;;;8.73;3.08;;;;;;;;;;5076839;28;20288;-84
2021/06/08 10:58:37;;;;;;;7.70;2.97;;;;;;;;;;5077105;28;20095;-84
2021/06/08 11:01:03;;;;;;;5.07;3.17;;;;;;;;;;5076879;28;20104;-84
2021/06/08 11:03:48;;;;;;;3.80;2.92;;;;;;;;;;5075858;28;20037;-84
2021/06/08 11:06:30;;;;;;;11.07;2.90;;;;;;;;;;5077115;28;20038;-84
2021/06/08 11:09:02;;;;;;;12.27;3.15;;;;;;;;;;5076033;28;20081;-84
2021/06/08 11:11:44;;;;;;;5.53;2.97;;;;;;;;;;5076789;28;20025;-84
2021/06/08 11:14:54;;;;;;;11.02;3.47;;;;;;;;;;5076762;28;20025;-84
2021/06/08 11:17:29;;;;;;;6.35;3.10;;;;;;;;;;5055206;28;20025;-84
2021/06/08 11:19:56;;;;;;;4.07;2.83;;;;;;;;;;5054851;28;20423;-85
2021/06/08 11:22:24;;;;;;;3.20;2.83;;;;;;;;;;5054944;28;20033;-85
2021/06/08 11:24:52;;;;;;;4.82;2.85;;;;;;;;;;5038323;28;20405;-84
2021/06/08 11:27:18;;;;;;;5.25;2.78;;;;;;;;;;5038398;28;20025;-84
2021/06/08 11:29:47;;;;;;;9.43;3.03;;;;;;;;;;5056979;28;20108;-84
2021/06/08 11:32:34;;;;;;;8.40;4.20;;;;;;;;;;5058647;28;20100;-84
2021/06/08 11:35:15;;;;;;;5.65;3.58;;;;;;;;;;5018794;28;20026;-84
2021/06/08 11:38:00;;;;;;;4.88;2.92;;;;;;;;;;5018670;28;20034;-84
2021/06/08 11:40:35;;;;;;;5.72;2.97;;;;;;;;;;5018851;28;20076;-84
2021/06/08 11:43:05;;;;;;;6.15;3.10;;;;;;;;;;5018630;28;20064;-84
2021/06/08 11:45:33;;;;;;;4.40;3.28;;;;;;;;;;5018358;28;20092;-84
2021/06/08 11:47:59;;;;;;;7.70;3.72;;;;;;;;;;5018752;28;20080;-84
2021/06/08 11:50:43;;;;;;;7.50;3.20;;;;;;;;;;5026263;28;20120;-84
2021/06/08 11:53:10;;;;;;;6.97;3.40;;;;;;;;;;5057989;28;20056;-84
2021/06/08 11:55:36;;;;;;;5.07;3.28;;;;;;;;;;5058098;28;20043;-85
2021/06/08 11:58:03;;;;;;;5.43;3.92;;;;;;;;;;5055125;28;20032;-84
2021/06/08 12:00:51;;;;;;;8.80;4.85;;;;;;;;;;5057824;28;20349;-84
2021/06/08 12:03:26;;;;;;;5.32;3.38;;;;;;;;;;5057837;28;20025;-84
2021/06/08 12:05:52;;;;;;;6.55;3.90;;;;;;;;;;5057894;28;20106;-84
2021/06/08 12:08:22;;;;;;;7.80;3.45;;;;;;;;;;5057578;28;20036;-84
2021/06/08 12:10:49;;;;;;;7.50;3.60;;;;;;;;;;5057548;28;20029;-84
2021/06/08 12:13:17;;;;;;;6.28;3.38;;;;;;;;;;5079201;28;20137;-84
2021/06/08 12:15:46;;;;;;;5.45;3.42;;;;;;;;;;5078403;28;20360;-84
2021/06/08 12:18:16;;;;;;;5.70;3.20;;;;;;;;;;5078458;28;20024;-84
2021/06/08 12:20:43;;;;;;;8.15;3.47;;;;;;;;;;5079484;28;20032;-84
2021/06/08 12:23:10;;;;;;;5.95;3.40;;;;;;;;;;5079683;28;20170;-84
2021/06/08 12:25:36;;;;;;;9.43;3.38;;;;;;;;;;5078380;28;20036;-84
2021/06/08 12:28:02;;;;;;;6.85;3.17;;;;;;;;;;5079253;28;20020;-84
2021/06/08 12:30:30;;;;;;;3.60;3.00;;;;;;;;;;5079336;28;20028;-84
2021/06/08 12:33:00;;;;;;;10.07;3.33;;;;;;;;;;5079306;28;20099;-84
2021/06/08 12:35:28;;;;;;;5.65;3.50;;;;;;;;;;5078149;28;20317;-84
2021/06/08 12:38:06;;;;;;;7.40;3.40;;;;;;;;;;5079037;28;20024;-84
2021/06/08 12:40:32;;;;;;;6.25;3.08;;;;;;;;;;5078898;28;20024;-84
2021/06/08 12:43:03;;;;;;;5.07;3.42;;;;;;;;;;5079162;28;20327;-84
2021/06/08 12:45:29;;;;;;;5.72;3.03;;;;;;;;;;5078996;28;20020;-83
2021/06/08 12:47:55;;;;;;;5.80;3.50;;;;;;;;;;5078170;28;20125;-84
2021/06/08 12:50:28;;;;;;;5.68;3.55;;;;;;;;;;5078803;28;20028;-84
2021/06/08 12:52:59;;;;;;;7.80;4.30;;;;;;;;;;5078738;28;20049;-84
2021/06/08 12:55:27;;;;;;;11.97;3.90;;;;;;;;;;5077729;28;20103;-84
2021/06/08 12:57:57;;;;;;;8.88;4.10;;;;;;;;;;5078624;28;20050;-84
2021/06/08 13:00:24;;;;;;;6.60;4.00;;;;;;;;;;5079025;28;20024;-83
2021/06/08 13:02:51;;;;;;;6.40;3.63;;;;;;;;;;5077668;28;20028;-83
2021/06/08 13:05:20;;;;;;;7.72;4.25;;;;;;;;;;5078642;28;20365;-84
2021/06/08 13:07:47;;;;;;;4.85;3.33;;;;;;;;;;5078776;28;20032;-85
2021/06/08 13:10:14;;;;;;;5.20;3.40;;;;;;;;;;5078526;28;20029;-84
2021/06/08 13:12:43;;;;;;;5.25;3.45;;;;;;;;;;5078373;28;20028;-84
2021/06/08 13:15:10;;;;;;;8.55;3.50;;;;;;;;;;5077754;28;20028;-85
2021/06/08 13:17:38;;;;;;;7.00;3.53;;;;;;;;;;5078436;28;20016;-85
2021/06/08 13:20:20;;;;;;;4.75;3.33;;;;;;;;;;5077254;28;20025;-83
2021/06/08 13:22:46;;;;;;;6.63;3.70;;;;;;;;;;5078192;28;20037;-83
2021/06/08 13:25:13;;;;;;;6.82;4.07;;;;;;;;;;5078622;28;20055;-84
2021/06/08 13:27:43;;;;;;;7.00;4.13;;;;;;;;;;5078199;28;20025;-84
2021/06/08 13:30:15;;;;;;;5.95;3.80;;;;;;;;;;5078185;28;20033;-84
2021/06/08 13:32:41;;;;;;;7.88;4.07;;;;;;;;;;5078382;28;20049;-84
2021/06/08 13:35:09;;;;;;;4.00;3.60;;;;;;;;;;5078275;28;20092;-83
2021/06/08 13:37:39;;;;;;;12.57;3.85;;;;;;;;;;5076992;28;20446;-83
2021/06/08 13:40:16;;;;;;;5.10;3.72;;;;;;;;;;5078022;28;20115;-84
2021/06/08 13:42:42;;;;;;;6.40;3.97;;;;;;;;;;5077897;28;20348;-84
2021/06/08 13:45:09;;;;;;;7.95;4.30;;;;;;;;;;5077946;28;20024;-84
2021/06/08 13:47:39;;;;;;;6.75;4.07;;;;;;;;;;5076993;28;20039;-84
2021/06/08 13:50:20;;;;;;;4.93;4.20;;;;;;;;;;5077931;28;20031;-84
2021/06/08 13:53:04;;;;;;;5.07;4.43;;;;;;;;;;5077023;28;20119;-84
2021/06/08 13:55:32;;;;;;;10.00;4.63;;;;;;;;;;5077515;28;20028;-83
2021/06/08 14:01:10;;;;;;;6.60;3.97;;;;;;;;;;5077790;28;20059;-83
2021/06/08 14:03:36;;;;;;;14.38;5.40;;;;;;;;;;5077768;28;20052;-84
2021/06/08 14:06:10;;;;;;;8.68;4.55;;;;;;;;;;5077603;28;20040;-84
2021/06/08 14:08:36;;;;;;;7.43;4.68;;;;;;;;;;5077706;28;20299;-84
2021/06/08 14:11:04;;;;;;;10.15;5.00;;;;;;;;;;5077585;28;20078;-84
2021/06/08 14:13:37;;;;;;;6.85;5.63;;;;;;;;;;5077365;28;20043;-83
2021/06/08 14:16:07;;;;;;;10.43;5.18;;;;;;;;;;5077503;28;20035;-86
2021/06/08 14:18:33;;;;;;;8.10;4.57;;;;;;;;;;5076617;28;20036;-83
2021/06/08 14:20:59;;;;;;;6.10;4.32;;;;;;;;;;5077685;28;20035;-83
2021/06/08 14:23:26;;;;;;;9.13;4.28;;;;;;;;;;5077464;28;20410;-83
2021/06/08 14:25:52;;;;;;;5.85;4.32;;;;;;;;;;5076484;28;20124;-84
2021/06/08 14:28:19;;;;;;;5.68;4.30;;;;;;;;;;5077258;28;20021;-84
2021/06/08 14:30:45;;;;;;;7.65;4.75;;;;;;;;;;5077216;28;20028;-83
2021/06/08 14:33:12;;;;;;;7.18;4.80;;;;;;;;;;5077182;28;20045;-83
2021/06/08 14:35:38;;;;;;;9.98;4.80;;;;;;;;;;5077458;28;20023;-84
2021/06/08 14:38:04;;;;;;;5.43;4.75;;;;;;;;;;5077454;28;20016;-84
2021/06/08 14:40:30;;;;;;;8.25;4.38;;;;;;;;;;5077339;28;20025;-84
2021/06/08 14:42:56;;;;;;;8.02;5.43;;;;;;;;;;5077111;28;20402;-84
2021/06/08 14:45:22;;;;;;;10.60;5.30;;;;;;;;;;5077141;28;20039;-83
2021/06/08 14:47:48;;;;;;;10.07;5.78;;;;;;;;;;5075969;28;20371;-83
2021/06/08 14:50:15;;;;;;;7.90;5.07;;;;;;;;;;5077115;28;20403;-84
2021/06/08 14:52:41;;;;;;;8.27;6.88;;;;;;;;;;5076667;28;20123;-84
2021/06/08 14:55:08;;;;;;;7.55;4.43;;;;;;;;;;5076325;28;20024;-84
2021/06/08 14:57:34;;;;;;;6.47;4.35;;;;;;;;;;5076972;28;20066;-84
2021/06/08 15:00:00;;;;;;;9.68;5.15;;;;;;;;;;5077148;28;20112;-84
2021/06/08 15:02:26;;;;;;;11.18;5.93;;;;;;;;;;5077112;28;20027;-84
2021/06/08 15:04:52;;;;;;;8.27;5.07;;;;;;;;;;5079405;28;20024;-84
2021/06/08 15:07:18;;;;;;;8.52;4.78;;;;;;;;;;5081297;28;20037;-84
2021/06/08 15:09:44;;;;;;;11.82;3.80;;;;;;;;;;5080850;28;20027;-84
2021/06/08 15:12:13;;;;;;;6.82;4.05;;;;;;;;;;5080832;28;20489;-83
2021/06/08 15:14:39;;;;;;;6.65;4.03;;;;;;;;;;5081046;28;20025;-83
2021/06/08 15:17:05;;;;;;;8.15;4.28;;;;;;;;;;5080816;28;20028;-84
2021/06/08 15:19:31;;;;;;;6.75;3.78;;;;;;;;;;5080625;28;20527;-83
2021/06/08 15:22:01;;;;;;;5.07;3.20;;;;;;;;;;5080775;28;20025;-84
2021/06/08 15:24:27;;;;;;;5.78;3.40;;;;;;;;;;5080686;28;20103;-84
2021/06/08 15:26:53;;;;;;;6.07;3.97;;;;;;;;;;5080913;28;20012;-84
2021/06/08 15:29:19;;;;;;;7.25;4.45;;;;;;;;;;5080643;28;20069;-84